WetterOnline ( https://www.wetteronline.de )

Wetter aktuell Oberammergau

Aktuelles Wetter: Garmisch-Partenkirchen (719m)

6-stündlich | Neueste Meldungen
Ortszeit Temperatur Wetter
Fr, 19.08. 20:00 16.9° C leichter Regen
Fr, 19.08. 14:00 20.3° C bedeckt
Fr, 19.08. 8:00 16.4° C bedeckt
Fr, 19.08. 2:00 16.0° C wolkig
Do, 18.08. 20:00 18.5° C bewölkt
Do, 18.08. 14:00 21.3° C bewölkt
Do, 18.08. 8:00 15.7° C bedeckt
Do, 18.08. 2:00 19.9° C wolkig
Ortszeit Temperatur Wetter
Fr, 19.08. 23:00 15.0° C leichter Regen
Fr, 19.08. 22:30 15.0° C Regen
Fr, 19.08. 22:20 15.0° C Regen
Fr, 19.08. 22:10 15.0° C Regen
Fr, 19.08. 22:00 15.1° C Regen
Fr, 19.08. 21:50 15.1° C Regen
Fr, 19.08. 21:30 15.2° C leichter Regen
Fr, 19.08. 21:00 15.5° C Regen
Fr, 19.08. 20:30 15.6° C Regen
Fr, 19.08. 20:00 16.9° C leichter Regen
Ortszeit Relative Feuchte Sichtweite
Fr, 19.08. 20:00 85% 60 km
Fr, 19.08. 14:00 73% 60 km
Fr, 19.08. 8:00 92% 40 km
Fr, 19.08. 2:00 93% 65 km
Do, 18.08. 20:00 92% 30 km
Do, 18.08. 14:00 65% 55 km
Do, 18.08. 8:00 87% 50 km
Do, 18.08. 2:00 66% >70 km
Ortszeit Relative Feuchte Sichtweite
Fr, 19.08. 23:00 96% 8 km
Fr, 19.08. 22:30 97% 5.0 km
Fr, 19.08. 22:20 97% -
Fr, 19.08. 22:10 96% -
Fr, 19.08. 22:00 96% 1.2 km
Fr, 19.08. 21:50 96% -
Fr, 19.08. 21:30 94% 15 km
Fr, 19.08. 21:00 93% 7 km
Fr, 19.08. 20:30 90% 9 km
Fr, 19.08. 20:00 85% 60 km
Ortszeit Niederschlagsmenge Niederschlagsart
Fr, 19.08. 20:00 7 l/m2 in 12 Std. Regen
Fr, 19.08. 14:00 7 l/m2 in 6 Std. Regen
Fr, 19.08. 8:00 0.1 l/m2 in 12 Std. Regen
Fr, 19.08. 2:00 0.0 l/m2 in 6 Std. -
Do, 18.08. 20:00 2 l/m2 in 12 Std. Regen
Do, 18.08. 14:00 0.0 l/m2 in 6 Std. -
Do, 18.08. 8:00 0.0 l/m2 in 12 Std. -
Do, 18.08. 2:00 0.0 l/m2 in 6 Std. -
Ortszeit Niederschlagsmenge Niederschlagsart
Fr, 19.08. 23:00 keine Meldung -
Fr, 19.08. 22:30 3.5 l/m2 in 1 Std. -
Fr, 19.08. 22:20 keine Meldung -
Fr, 19.08. 22:10 keine Meldung -
Fr, 19.08. 22:00 3.2 l/m2 in 1 Std. Regen
Fr, 19.08. 21:50 keine Meldung -
Fr, 19.08. 21:30 1.3 l/m2 in 1 Std. -
Fr, 19.08. 21:00 3.5 l/m2 in 1 Std. Regen
Fr, 19.08. 20:30 1.5 l/m2 in 1 Std. -
Fr, 19.08. 20:00 0.1 l/m2 in 1 Std. Regen
Ortszeit Stärke Spitze Richtung
km/h Bft. km/h Grad Sektor
Fr, 19.08. 20:00 6 1 31 220° SW
Fr, 19.08. 14:00 4 1 18 230° SW
Fr, 19.08. 8:00 4 1 11 190° S
Fr, 19.08. 2:00 4 1 7 230° SW
Do, 18.08. 20:00 4 1 32 190° S
Do, 18.08. 14:00 19 3 35 40° NO
Do, 18.08. 8:00 4 1 18 120° SO
Do, 18.08. 2:00 7 2 25 100° O
Ortszeit Stärke Spitze Richtung
km/h Bft. km/h Grad Sektor
Fr, 19.08. 23:00 4 1 14 80° O
Fr, 19.08. 22:30 0 0 4 - -
Fr, 19.08. 22:20 2 1 - 170° S
Fr, 19.08. 22:10 2 1 - 200° S
Fr, 19.08. 22:00 4 1 7 180° S
Fr, 19.08. 21:50 4 1 - 180° S
Fr, 19.08. 21:30 4 1 7 210° SW
Fr, 19.08. 21:00 6 1 15 100° O
Fr, 19.08. 20:30 6 1 15 210° SW
Fr, 19.08. 20:00 6 1 15 220° SW
Ortszeit Untergrenze Bedeckung Gattung
total tief tief mittel hoch
Fr, 19.08. 20:00 1500 m 7/8 7/8 - - -
Fr, 19.08. 14:00 840 m 8/8 8/8 - - -
Fr, 19.08. 8:00 1050 m 8/8 8/8 - - -
Fr, 19.08. 2:00 660 m 8/8 3/8 - - -
Do, 18.08. 20:00 600 m 7/8 7/8 - - -
Do, 18.08. 14:00 4800 m 8/8 4/8 - - -
Do, 18.08. 8:00 3600 m 8/8 8/8 - - -
Do, 18.08. 2:00 1500 m 7/8 5/8 - - -
Ortszeit Bedeckungsgrad in Achtel und Wolkenuntergrenze
Fr, 19.08. 23:00 3(180m) 7(360m) 7(1350m)
Fr, 19.08. 22:30 2(840m) 6(1350m) 7(1500m)
Fr, 19.08. 22:20 2(840m) 6(1350m) 7(1500m)
Fr, 19.08. 22:10 7
Fr, 19.08. 22:00 3(510m) 7(1200m) 7(1800m)
Fr, 19.08. 21:50 3(510m) 7(1200m) 7(1800m)
Fr, 19.08. 21:30 1(120m) 7(570m) 7(1470m)
Fr, 19.08. 21:00 1(210m) 5(1260m) 8(1470m)
Fr, 19.08. 20:30 7(1470m) 8(1500m)
Fr, 19.08. 20:00 4(1500m) 6(1800m) 7(2400m)
Ortszeit Luftdruck NN (hPa) Tendenz (hPa in 3 Std.)
Fr, 19.08. 20:00 1014 + 1,8
Fr, 19.08. 14:00 1010 - 0,7
Fr, 19.08. 8:00 1011 - 0,2
Fr, 19.08. 2:00 1012 - 0,3
Do, 18.08. 20:00 1010 + 0,7
Do, 18.08. 14:00 1008 - 2,1
Do, 18.08. 8:00 1012 - 0,5
Do, 18.08. 2:00 1012 + 2,4
Ortszeit Luftdruck NN (hPa) Tendenz (hPa in 3 Std.)
Fr, 19.08. 23:00 1017 + 2,1
Fr, 19.08. 22:30 1017 + 1,9
Fr, 19.08. 22:20 1017 keine Meldung
Fr, 19.08. 22:10 1017 keine Meldung
Fr, 19.08. 22:00 1017 + 2,1
Fr, 19.08. 21:50 1017 keine Meldung
Fr, 19.08. 21:30 1016 + 2,3
Fr, 19.08. 21:00 1016 + 2,2
Fr, 19.08. 20:30 1015 + 1,9
Fr, 19.08. 20:00 1014 + 1,8
Ortszeit Schneehöhe (cm)
Fr, 19.08. 20:00 0
Fr, 19.08. 14:00 0
Fr, 19.08. 8:00 0
Fr, 19.08. 2:00 0
Do, 18.08. 20:00 0
Do, 18.08. 14:00 0
Do, 18.08. 8:00 0
Do, 18.08. 2:00 0
Ortszeit Schneehöhe (cm)
Fr, 19.08. 23:00 -
Fr, 19.08. 22:30 0
Fr, 19.08. 22:20 0
Fr, 19.08. 22:10 0
Fr, 19.08. 22:00 0
Fr, 19.08. 21:50 0
Fr, 19.08. 21:30 0
Fr, 19.08. 21:00 0
Fr, 19.08. 20:30 0
Fr, 19.08. 20:00 0
Link zu dieser Seite / Seite empfehlen

Das Wetter in ...